Time;durP1;ratioP1;P1;durP2;ratioP2;P2;SDS_P1;SDS_P2;PMS_P1;PMS_P2;Temp;Humidity;BMP_temperature;BMP_pressure;BME280_temperature;BME280_humidity;BME280_pressure;Samples;Min_cycle;Max_cycle;Signal;HPM_P1;HPM_P2
2020/12/22 08:24:01;;;;;;;43.95;23.42;;;;;;;-0.20;76.57;101621.30;1728948;81;21588;-38
2020/12/22 08:26:54;;;;;;;45.17;24.10;;;;;;;-0.15;76.62;101617.34;1727870;81;21238;-44
2020/12/22 08:29:59;;;;;;;47.60;24.05;;;;;;;-0.12;76.61;101616.23;1726516;81;21277;-44
2020/12/22 08:33:03;;;;;;;46.18;22.45;;;;;;;-0.05;76.50;101615.46;1729042;81;21496;-43
2020/12/22 08:36:14;;;;;;;38.90;22.98;;;;;;;-0.04;76.32;101617.23;1727779;81;21297;-42
2020/12/22 08:39:26;;;;;;;43.63;23.60;;;;;;;-0.06;76.28;101613.69;1728766;81;21547;-44
2020/12/22 08:41:57;;;;;;;42.98;22.77;;;;;;;-0.07;76.39;101609.30;1731772;81;21624;-44
2020/12/22 08:44:26;;;;;;;43.65;21.85;;;;;;;-0.08;76.49;101606.25;1726521;82;21194;-43
2020/12/22 08:46:54;;;;;;;44.20;22.32;;;;;;;-0.04;76.54;101604.38;1727629;81;21961;-37
2020/12/22 08:49:26;;;;;;;40.43;21.75;;;;;;;-0.01;76.50;101602.38;1686817;83;21620;-43
2020/12/22 08:51:59;;;;;;;39.70;21.60;;;;;;;0.01;76.42;101598.23;1690646;83;21669;-42
2020/12/22 08:54:29;;;;;;;42.70;23.15;;;;;;;0.03;76.47;101594.46;1724859;81;21171;-43
2020/12/22 08:57:11;;;;;;;39.48;22.13;;;;;;;0.05;76.27;101586.42;1725293;82;21317;-43
2020/12/22 08:59:40;;;;;;;41.18;21.33;;;;;;;0.08;76.24;101584.06;1728963;82;21655;-43
2020/12/22 09:02:27;;;;;;;38.83;21.30;;;;;;;0.09;76.20;101587.13;1730053;82;21138;-42
2020/12/22 09:04:57;;;;;;;43.78;22.22;;;;;;;0.10;76.16;101583.34;1732305;82;21103;-42
2020/12/22 09:07:25;;;;;;;37.90;20.43;;;;;;;0.14;76.21;101580.18;1729141;82;21288;-41
2020/12/22 09:09:54;;;;;;;38.35;20.85;;;;;;;0.19;76.08;101573.64;1728818;82;21217;-37
2020/12/22 09:12:24;;;;;;;40.95;20.85;;;;;;;0.24;76.12;101576.50;1706067;82;21536;-42
2020/12/22 09:14:53;;;;;;;33.98;19.05;;;;;;;0.31;76.09;101567.47;1684490;82;21128;-44
2020/12/22 09:17:33;;;;;;;38.98;19.92;;;;;;;0.35;75.75;101564.27;1680847;82;22022;-43
2020/12/22 09:20:06;;;;;;;34.87;19.90;;;;;;;0.32;75.43;101558.94;1717143;82;21156;-38
2020/12/22 09:22:35;;;;;;;37.13;20.70;;;;;;;0.29;75.55;101559.66;1715113;81;21755;-39
2020/12/22 09:25:07;;;;;;;38.80;21.62;;;;;;;0.30;75.55;101558.86;1705758;82;21313;-42
2020/12/22 09:27:41;;;;;;;41.75;21.02;;;;;;;0.31;75.54;101558.45;1661736;82;21649;-37
2020/12/22 09:30:14;;;;;;;45.25;22.95;;;;;;;0.34;75.55;101546.64;1712830;82;21182;-37
2020/12/22 09:32:44;;;;;;;41.20;20.12;;;;;;;0.39;75.32;101553.36;1708713;82;21178;-38
2020/12/22 09:35:12;;;;;;;41.85;20.97;;;;;;;0.40;75.23;101547.01;1661411;84;21662;-37
2020/12/22 09:37:40;;;;;;;38.28;21.20;;;;;;;0.42;75.23;101544.16;1710757;82;21200;-37
2020/12/22 09:40:09;;;;;;;38.08;21.70;;;;;;;0.43;75.29;101544.64;1706913;82;21698;-38
2020/12/22 09:42:37;;;;;;;40.15;19.42;;;;;;;0.45;75.12;101536.99;1713337;82;21705;-37
2020/12/22 09:45:06;;;;;;;34.80;18.52;;;;;;;0.40;74.96;101533.25;1709247;82;21336;-44
2020/12/22 09:47:36;;;;;;;36.93;18.67;;;;;;;0.38;75.01;101529.70;1693750;82;21522;-38
2020/12/22 09:50:05;;;;;;;36.35;19.12;;;;;;;0.39;75.09;101534.94;1710427;82;21445;-37
2020/12/22 09:52:34;;;;;;;39.80;20.80;;;;;;;0.43;75.11;101528.30;1707008;82;21175;-37
2020/12/22 09:55:04;;;;;;;42.70;20.50;;;;;;;0.49;75.02;101524.41;1706571;82;21163;-38
2020/12/22 09:57:34;;;;;;;34.85;19.62;;;;;;;0.48;74.90;101520.45;1706666;82;21296;-38
2020/12/22 10:00:04;;;;;;;37.75;20.40;;;;;;;0.50;74.92;101517.56;1711292;82;21746;-38
2020/12/22 10:02:33;;;;;;;39.50;20.17;;;;;;;0.53;74.68;101517.77;1705488;82;21792;-38
2020/12/22 10:05:01;;;;;;;40.55;20.77;;;;;;;0.55;74.56;101512.69;1708818;82;21163;-43
2020/12/22 10:07:30;;;;;;;37.63;19.32;;;;;;;0.58;74.53;101507.34;1708026;82;21998;-42
2020/12/22 10:10:00;;;;;;;38.50;21.05;;;;;;;0.58;74.48;101507.34;1699752;82;21340;-36
2020/12/22 10:12:39;;;;;;;35.35;20.82;;;;;;;0.59;74.41;101500.09;1709655;82;21182;-42
2020/12/22 10:15:10;;;;;;;33.95;19.05;;;;;;;0.59;74.35;101497.52;1701837;82;21301;-37
2020/12/22 10:17:40;;;;;;;36.83;20.60;;;;;;;0.64;74.33;101494.81;1657704;84;21729;-43
2020/12/22 10:20:15;;;;;;;34.38;18.20;;;;;;;0.70;74.25;101490.42;1714860;82;21504;-43
2020/12/22 10:27:49;;;;;;;32.93;18.25;;;;;;;0.79;73.97;101490.54;1723922;81;21211;-42
2020/12/22 10:31:12;;;;;;;38.60;20.65;;;;;;;0.85;73.72;101491.70;1730628;82;21649;-37
2020/12/22 10:34:41;;;;;;;34.03;19.87;;;;;;;0.83;73.72;101487.75;1689461;83;21180;-36
2020/12/22 10:38:04;;;;;;;32.28;19.10;;;;;;;0.84;73.76;101481.80;1728413;81;21611;-42
2020/12/22 10:40:40;;;;;;;36.77;18.55;;;;;;;0.87;73.70;101474.26;1727751;82;21176;-41
2020/12/22 10:43:23;;;;;;;34.23;18.25;;;;;;;0.92;73.45;101473.20;1723200;81;21172;-43
2020/12/22 10:45:51;;;;;;;31.65;17.23;;;;;;;0.94;73.31;101470.34;1724717;81;21175;-38
2020/12/22 10:48:21;;;;;;;31.40;18.48;;;;;;;0.89;73.21;101470.47;1686251;83;22001;-38
2020/12/22 10:50:56;;;;;;;38.10;20.92;;;;;;;0.84;73.15;101465.05;1726071;82;21174;-44
2020/12/22 10:53:25;;;;;;;33.10;18.95;;;;;;;0.82;73.33;101464.08;1699975;82;21334;-43
2020/12/22 10:55:59;;;;;;;36.53;18.55;;;;;;;0.87;73.30;101468.19;1727240;82;21151;-46
2020/12/22 10:58:30;;;;;;;27.77;17.90;;;;;;;0.90;73.19;101461.94;1723859;81;21170;-44
2020/12/22 11:01:02;;;;;;;27.40;16.02;;;;;;;0.91;73.09;101462.02;1725095;81;21524;-41
2020/12/22 11:03:30;;;;;;;26.93;15.00;;;;;;;0.94;72.94;101463.49;1726856;81;21708;-43
2020/12/22 11:06:16;;;;;;;23.18;13.90;;;;;;;0.94;72.64;101458.73;1723943;81;21171;-45
2020/12/22 11:08:44;;;;;;;23.60;13.22;;;;;;;0.92;72.55;101459.03;1704489;81;21189;-38
2020/12/22 11:11:25;;;;;;;25.88;15.13;;;;;;;0.80;72.56;101465.66;1726445;82;21141;-42
2020/12/22 11:13:57;;;;;;;27.07;15.23;;;;;;;0.76;72.82;101462.44;1698876;81;21244;-38
2020/12/22 11:16:41;;;;;;;32.38;17.30;;;;;;;0.76;72.89;101458.17;1722993;81;21307;-38
2020/12/22 11:19:53;;;;;;;28.10;16.62;;;;;;;0.82;73.03;101455.47;1723342;82;21120;-42
2020/12/22 11:31:44;;;;;;;27.17;15.10;;;;;;;0.95;72.68;101450.20;1690482;83;21144;-39
2020/12/22 11:35:02;;;;;;;35.48;17.02;;;;;;;0.97;72.58;101452.05;1668517;84;21701;-43
2020/12/22 11:37:57;;;;;;;31.95;16.40;;;;;;;0.97;72.48;101453.75;1707136;82;22004;-44
2020/12/22 11:40:30;;;;;;;27.60;15.48;;;;;;;0.91;72.36;101450.41;1711723;82;21163;-43
2020/12/22 11:43:02;;;;;;;28.30;16.12;;;;;;;0.83;72.42;101453.38;1723671;81;21174;-38
2020/12/22 11:45:31;;;;;;;28.32;14.75;;;;;;;0.80;72.54;101451.48;1727504;82;21699;-45
2020/12/22 11:48:11;;;;;;;;;;;;;;;;;;;;;
2020/12/22 11:50:40;;;;;;;32.25;15.43;;;;;;;0.69;72.86;101437.98;1793012;78;23753;-42
2020/12/22 11:53:08;;;;;;;25.20;14.00;;;;;;;0.62;73.14;101434.98;1750482;80;21232;-38
2020/12/22 11:55:38;;;;;;;22.80;13.60;;;;;;;0.62;73.28;101437.16;1740002;81;21328;-43
2020/12/22 11:58:09;;;;;;;25.23;14.65;;;;;;;0.56;73.16;101439.77;1726884;81;21298;-42
2020/12/22 12:00:43;;;;;;;27.93;15.65;;;;;;;0.51;73.49;101438.21;1744885;81;21162;-42
2020/12/22 12:03:19;;;;;;;26.23;14.63;;;;;;;0.50;73.65;101441.59;1742926;81;21515;-36
2020/12/22 12:05:47;;;;;;;25.27;14.50;;;;;;;0.44;73.75;101441.23;1742392;81;21478;-43
2020/12/22 12:08:16;;;;;;;27.22;14.87;;;;;;;0.38;73.85;101443.45;1742600;81;21159;-42
2020/12/22 12:10:45;;;;;;;26.17;16.42;;;;;;;0.36;74.04;101442.48;1735271;81;21578;-41
2020/12/22 12:13:20;;;;;;;25.00;15.08;;;;;;;0.33;74.08;101441.88;1738293;81;21155;-36
2020/12/22 12:15:51;;;;;;;23.85;14.55;;;;;;;0.36;74.40;101451.09;1740019;81;21178;-41
2020/12/22 12:18:20;;;;;;;24.77;15.23;;;;;;;0.41;74.35;101441.07;1740550;81;21724;-42
2020/12/22 12:20:49;;;;;;;26.15;14.63;;;;;;;0.45;74.28;101441.31;1736361;81;21127;-37
2020/12/22 12:23:17;;;;;;;21.60;14.20;;;;;;;0.45;74.03;101445.17;1741095;81;21166;-37
2020/12/22 12:25:47;;;;;;;23.50;14.85;;;;;;;0.40;73.82;101450.45;1708541;82;21202;-37
2020/12/22 12:28:15;;;;;;;27.32;16.70;;;;;;;0.36;73.88;101447.23;1692425;83;21219;-40
2020/12/22 12:30:43;;;;;;;34.48;20.05;;;;;;;0.35;74.13;101444.17;1676285;84;21572;-36
2020/12/22 12:33:12;;;;;;;27.37;17.37;;;;;;;0.39;74.17;101438.78;1672396;84;21185;-37
2020/12/22 12:35:42;;;;;;;28.07;14.87;;;;;;;0.44;73.99;101444.70;1689490;84;21231;-36
2020/12/22 12:38:17;;;;;;;24.07;15.30;;;;;;;0.39;73.90;101448.68;1689742;84;21661;-37
2020/12/22 12:40:52;;;;;;;24.20;14.33;;;;;;;0.31;73.88;101446.06;1688679;84;21198;-42
2020/12/22 12:43:23;;;;;;;;;;;;;;;0.30;74.13;101445.58;1695506;84;21186;-37
2020/12/22 12:45:55;;;;;;;31.52;19.20;;;;;;;0.31;74.23;101449.04;1684140;84;20459;-42
2020/12/22 12:48:22;;;;;;;28.25;18.15;;;;;;;0.35;74.37;101445.83;1687349;84;21182;-37
2020/12/22 12:50:52;;;;;;;31.37;18.25;;;;;;;0.42;74.07;101445.02;1688416;84;21187;-37
2020/12/22 12:53:23;;;;;;;28.43;15.97;;;;;;;0.48;73.89;101454.79;1690461;84;21360;-43
2020/12/22 12:55:50;;;;;;;30.82;17.23;;;;;;;0.48;73.58;101456.08;1690919;84;21206;-42
2020/12/22 12:58:18;;;;;;;28.73;16.12;;;;;;;0.48;73.55;101455.67;1687311;84;21210;-41
2020/12/22 13:00:49;;;;;;;33.83;18.87;;;;;;;0.51;73.37;101454.95;1685416;84;21552;-49
2020/12/22 13:03:17;;;;;;;30.72;19.10;;;;;;;0.54;73.30;101460.30;1689242;83;21197;-42
2020/12/22 13:05:46;;;;;;;33.10;18.07;;;;;;;0.55;73.32;101456.92;1682752;84;21215;-37
2020/12/22 13:08:14;;;;;;;24.10;15.40;;;;;;;0.56;73.33;101457.80;1688130;84;21217;-38
2020/12/22 13:10:42;;;;;;;26.90;15.83;;;;;;;0.55;73.44;101460.78;1689734;84;21494;-37
2020/12/22 13:13:10;;;;;;;21.02;14.55;;;;;;;0.50;73.48;101458.33;1688335;84;21556;-37
2020/12/22 13:15:38;;;;;;;26.50;15.48;;;;;;;0.47;73.58;101460.34;1683012;84;21610;-37
2020/12/22 13:18:06;;;;;;;24.77;15.38;;;;;;;0.47;73.70;101456.88;1675033;85;21175;-43
2020/12/22 13:20:35;;;;;;;26.45;16.23;;;;;;;0.48;73.52;101454.79;1690548;84;21178;-42
2020/12/22 13:23:03;;;;;;;29.07;16.60;;;;;;;0.44;73.59;101459.26;1669774;84;21183;-41
2020/12/22 13:25:32;;;;;;;28.32;16.50;;;;;;;0.44;73.97;101452.42;1674007;85;21183;-42
2020/12/22 13:28:00;;;;;;;23.65;15.53;;;;;;;0.47;73.89;101449.16;1685502;82;21203;-42
2020/12/22 13:30:27;;;;;;;24.52;15.30;;;;;;;0.48;73.76;101447.06;1684449;84;21904;-42
2020/12/22 13:32:55;;;;;;;28.77;15.80;;;;;;;0.46;73.76;101444.38;1700054;83;21747;-40
2020/12/22 13:35:24;;;;;;;25.70;16.82;;;;;;;0.43;73.64;101449.36;1688570;84;21885;-42
2020/12/22 13:37:53;;;;;;;24.80;16.70;;;;;;;0.39;73.89;101451.25;1674329;85;21163;-40
2020/12/22 13:40:23;;;;;;;25.70;16.75;;;;;;;0.36;73.92;101443.37;1675380;85;21187;-41
2020/12/22 13:42:58;;;;;;;25.40;17.37;;;;;;;0.35;74.07;101439.39;1668444;85;21686;-42
2020/12/22 13:45:22;;;;;;;25.65;17.15;;;;;;;0.31;74.08;101437.45;1671199;85;21215;-42
2020/12/22 13:47:50;;;;;;;23.90;15.65;;;;;;;0.26;74.41;101433.31;1679890;85;21212;-43
2020/12/22 13:50:18;;;;;;;28.47;16.23;;;;;;;0.27;74.55;101431.22;1671421;85;21165;-39
2020/12/22 13:52:45;;;;;;;26.33;17.60;;;;;;;0.30;74.52;101436.57;1657324;86;21161;-38
2020/12/22 13:55:13;;;;;;;32.23;19.55;;;;;;;0.28;74.59;101433.40;1659954;86;21219;-38
2020/12/22 13:57:41;;;;;;;26.35;16.00;;;;;;;0.27;74.66;101428.65;1657510;86;21164;-38
2020/12/22 14:00:10;;;;;;;25.50;15.38;;;;;;;0.30;74.62;101417.66;1642051;86;21633;-42
2020/12/22 14:02:38;;;;;;;20.80;14.35;;;;;;;0.31;74.56;101419.44;1658417;86;21570;-37
2020/12/22 14:05:07;;;;;;;25.65;15.93;;;;;;;0.29;74.50;101411.63;1651191;86;21130;-38
2020/12/22 14:07:35;;;;;;;23.35;15.68;;;;;;;0.27;74.58;101422.22;1663576;86;21635;-36
2020/12/22 14:10:03;;;;;;;21.55;14.05;;;;;;;0.26;74.68;101413.61;1654374;86;21750;-38
2020/12/22 14:12:31;;;;;;;21.70;14.43;;;;;;;0.28;74.63;101422.70;1663807;86;21798;-38
2020/12/22 14:14:59;;;;;;;25.80;15.18;;;;;;;0.28;74.62;101420.13;1651333;86;21220;-38
2020/12/22 14:17:27;;;;;;;21.45;14.58;;;;;;;0.28;74.60;101429.13;1666562;86;21632;-43
2020/12/22 14:19:55;;;;;;;21.62;13.95;;;;;;;0.28;74.65;101431.70;1664715;86;21232;-37
